createdAt,value
2023-02-11T00:01:36.508Z,11.73
2023-02-11T00:04:05.987Z,9.77
2023-02-11T00:06:35.437Z,13.13
2023-02-11T00:09:04.670Z,12.60
2023-02-11T00:11:32.655Z,11.48
2023-02-11T00:14:02.942Z,12.40
2023-02-11T00:16:32.062Z,10.88
2023-02-11T00:19:01.703Z,10.80
2023-02-11T00:21:29.737Z,11.63
2023-02-11T00:24:00.132Z,12.82
2023-02-11T00:26:31.234Z,13.40
2023-02-11T00:29:01.163Z,11.90
2023-02-11T00:31:29.325Z,10.77
2023-02-11T00:33:57.948Z,11.85
2023-02-11T00:36:27.921Z,11.45
2023-02-11T00:38:58.980Z,10.60
2023-02-11T00:41:27.760Z,9.90
2023-02-11T00:43:54.988Z,12.82
2023-02-11T00:46:23.104Z,14.32
2023-02-11T00:48:53.433Z,11.63
2023-02-11T00:51:26.460Z,10.50
2023-02-11T00:53:55.874Z,12.23
2023-02-11T00:56:23.711Z,10.23
2023-02-11T00:58:51.787Z,11.00
2023-02-11T01:01:20.154Z,11.55
2023-02-11T01:03:48.944Z,10.63
2023-02-11T01:06:17.643Z,11.27
2023-02-11T01:08:44.990Z,12.35
2023-02-11T01:11:19.034Z,9.55
2023-02-11T01:13:47.510Z,11.07
2023-02-11T01:16:19.731Z,17.92
2023-02-11T01:18:59.070Z,15.77
2023-02-11T01:21:26.905Z,11.80
2023-02-11T01:23:55.736Z,25.15
2023-02-11T01:26:23.176Z,28.35
2023-02-11T01:28:50.901Z,14.75
2023-02-11T01:31:20.252Z,16.50
2023-02-11T01:33:47.719Z,16.42
2023-02-11T01:36:15.683Z,10.93
2023-02-11T01:38:44.781Z,11.48
2023-02-11T01:41:15.197Z,11.48
2023-02-11T01:43:47.606Z,10.43
2023-02-11T01:46:24.271Z,10.55
2023-02-11T01:49:17.024Z,10.73
2023-02-11T01:52:01.598Z,10.75
2023-02-11T01:54:52.747Z,10.55
2023-02-11T01:57:27.247Z,10.18
2023-02-11T02:00:09.737Z,11.77
2023-02-11T02:03:02.009Z,11.43
2023-02-11T02:05:43.022Z,13.00
2023-02-11T02:08:22.789Z,11.45
2023-02-11T02:10:56.873Z,15.05
2023-02-11T02:13:26.081Z,15.90
2023-02-11T02:15:59.021Z,12.02
2023-02-11T02:18:56.893Z,11.98
2023-02-11T02:21:55.795Z,13.52
2023-02-11T02:24:41.731Z,11.02
2023-02-11T02:27:50.819Z,10.85
2023-02-11T02:30:39.021Z,9.73
2023-02-11T02:33:22.509Z,9.13
2023-02-11T02:36:01.622Z,8.18
2023-02-11T02:39:01.029Z,10.00
2023-02-11T02:41:33.578Z,8.38
2023-02-11T02:44:02.594Z,9.57
2023-02-11T02:46:33.632Z,8.65
2023-02-11T02:49:01.335Z,8.57
2023-02-11T02:51:53.005Z,8.98
2023-02-11T02:54:53.492Z,9.20
2023-02-11T02:57:39.100Z,8.95
2023-02-11T03:00:20.362Z,7.18
2023-02-11T03:03:08.301Z,8.80
2023-02-11T03:06:04.422Z,7.50
2023-02-11T03:08:47.456Z,8.00
2023-02-11T03:11:18.941Z,7.32
2023-02-11T03:13:48.848Z,8.48
2023-02-11T03:16:25.179Z,9.83
2023-02-11T03:19:26.489Z,8.57
2023-02-11T03:21:55.210Z,9.80
2023-02-11T03:24:33.464Z,12.32
2023-02-11T03:27:27.571Z,10.40
2023-02-11T03:30:14.873Z,10.25
2023-02-11T03:33:03.542Z,10.60
2023-02-11T03:35:42.548Z,9.48
2023-02-11T03:38:25.442Z,9.35
2023-02-11T03:40:55.606Z,13.52
2023-02-11T03:43:37.023Z,14.23
2023-02-11T03:46:05.811Z,11.95
2023-02-11T03:48:39.458Z,12.38
2023-02-11T03:51:10.365Z,11.07
2023-02-11T03:53:41.472Z,10.82
2023-02-11T03:56:12.969Z,11.48
2023-02-11T03:58:40.329Z,8.95
2023-02-11T04:01:09.960Z,10.25
2023-02-11T04:03:38.201Z,8.93
2023-02-11T04:06:06.453Z,7.07
2023-02-11T04:08:34.145Z,8.93
2023-02-11T04:11:02.525Z,9.45
2023-02-11T04:13:49.174Z,9.45
2023-02-11T04:16:36.936Z,11.77
2023-02-11T04:19:24.595Z,11.20
2023-02-11T04:22:12.364Z,9.52
2023-02-11T04:25:00.110Z,8.98
2023-02-11T04:27:47.847Z,8.70
2023-02-11T04:30:36.221Z,8.70
2023-02-11T04:33:25.210Z,6.78
2023-02-11T04:36:13.034Z,10.07
2023-02-11T04:39:00.760Z,8.40
2023-02-11T04:41:48.492Z,10.52
2023-02-11T04:44:37.329Z,9.68
2023-02-11T04:47:26.114Z,9.82
2023-02-11T04:50:13.853Z,13.32
2023-02-11T04:53:01.550Z,11.50
2023-02-11T04:55:52.336Z,13.55
2023-02-11T04:58:40.240Z,11.63
2023-02-11T05:01:28.169Z,11.68
2023-02-11T05:04:16.486Z,11.30
2023-02-11T05:07:04.663Z,11.15
2023-02-11T05:09:53.389Z,9.43
2023-02-11T05:12:41.187Z,9.65
2023-02-11T05:15:29.205Z,11.93
2023-02-11T05:18:16.929Z,10.73
2023-02-11T05:21:14.682Z,17.20
2023-02-11T05:24:02.327Z,17.67
2023-02-11T05:26:51.355Z,16.85
2023-02-11T05:29:39.347Z,14.75
2023-02-11T05:32:27.044Z,14.68
2023-02-11T05:35:14.869Z,13.43
2023-02-11T05:38:02.517Z,12.25
2023-02-11T05:40:50.875Z,11.77
2023-02-11T05:43:39.960Z,9.98
2023-02-11T05:46:28.031Z,15.40
2023-02-11T05:49:17.682Z,23.90
2023-02-11T05:52:06.640Z,26.95
2023-02-11T05:54:54.263Z,23.23
2023-02-11T05:57:42.210Z,20.98
2023-02-11T06:00:30.029Z,19.77
2023-02-11T06:03:17.829Z,18.42
2023-02-11T06:06:06.119Z,18.88
2023-02-11T06:08:55.108Z,15.38
2023-02-11T06:11:42.950Z,13.00
2023-02-11T06:14:32.498Z,12.38
2023-02-11T06:17:26.994Z,14.13
2023-02-11T06:20:14.908Z,12.00
2023-02-11T06:23:03.281Z,10.90
2023-02-11T06:25:52.129Z,9.40
2023-02-11T06:28:41.984Z,10.52
2023-02-11T06:31:31.037Z,15.47
2023-02-11T06:34:18.803Z,20.00
2023-02-11T06:37:07.558Z,18.90
2023-02-11T06:39:55.538Z,13.60
2023-02-11T06:42:44.623Z,12.13
2023-02-11T06:45:33.566Z,13.40
2023-02-11T06:48:21.673Z,13.10
2023-02-11T06:51:11.483Z,16.35
2023-02-11T06:53:59.276Z,28.10
2023-02-11T06:56:47.918Z,42.33
2023-02-11T06:59:35.778Z,42.50
2023-02-11T07:02:23.948Z,29.90
2023-02-11T07:05:17.734Z,17.40
2023-02-11T07:08:06.283Z,15.50
2023-02-11T07:10:54.219Z,17.23
2023-02-11T07:13:42.516Z,14.95
2023-02-11T07:16:31.251Z,15.57
2023-02-11T07:19:19.989Z,13.70
2023-02-11T07:22:09.053Z,18.67
2023-02-11T07:24:56.735Z,20.02
2023-02-11T07:27:44.733Z,21.40
2023-02-11T07:30:32.578Z,22.73
2023-02-11T07:33:23.564Z,19.50
2023-02-11T07:36:14.345Z,18.27
2023-02-11T07:39:02.148Z,15.55
2023-02-11T07:45:58.713Z,14.40
2023-02-11T07:48:47.108Z,12.13
2023-02-11T07:51:35.885Z,12.60
2023-02-11T07:54:25.921Z,14.60
2023-02-11T07:57:13.755Z,19.75
2023-02-11T08:00:01.968Z,26.50
2023-02-11T08:02:58.530Z,25.98
2023-02-11T08:05:47.127Z,18.63
2023-02-11T08:08:35.166Z,19.70
2023-02-11T08:11:25.508Z,21.33
2023-02-11T08:14:13.362Z,25.20
2023-02-11T08:17:01.004Z,21.83
2023-02-11T08:19:49.087Z,24.67
2023-02-11T08:22:37.101Z,22.00
2023-02-11T08:25:24.828Z,21.95
2023-02-11T08:28:12.517Z,20.88
2023-02-11T08:31:10.557Z,22.60
2023-02-11T08:33:58.384Z,23.45
2023-02-11T08:36:47.615Z,23.85
2023-02-11T08:39:36.689Z,26.60
2023-02-11T08:42:24.549Z,23.85
2023-02-11T08:45:13.464Z,21.80
2023-02-11T08:48:01.461Z,23.58
2023-02-11T08:50:50.675Z,21.90
2023-02-11T08:53:39.958Z,24.38
2023-02-11T08:56:28.235Z,29.35
2023-02-11T08:59:17.963Z,19.75
2023-02-11T09:02:06.264Z,20.23
2023-02-11T09:04:54.196Z,23.83
2023-02-11T09:07:41.986Z,24.52
2023-02-11T09:10:30.058Z,26.85
2023-02-11T09:13:17.845Z,26.67
2023-02-11T09:16:07.366Z,27.45
2023-02-11T09:18:57.671Z,24.42
2023-02-11T09:21:46.119Z,25.48
2023-02-11T09:24:33.843Z,41.78
2023-02-11T09:27:21.494Z,29.30
2023-02-11T09:30:09.740Z,26.40
2023-02-11T09:32:57.541Z,29.77
2023-02-11T09:35:45.303Z,32.33
2023-02-11T09:38:33.792Z,34.72
2023-02-11T09:41:34.570Z,31.92
2023-02-11T09:44:29.803Z,34.92
2023-02-11T09:47:34.423Z,35.97
2023-02-11T09:50:47.957Z,36.90
2023-02-11T09:53:41.569Z,43.45
2023-02-11T09:56:34.608Z,34.50
2023-02-11T09:59:22.920Z,42.50
2023-02-11T10:02:45.284Z,43.13
2023-02-11T10:05:43.987Z,60.55
2023-02-11T10:08:33.305Z,47.63
2023-02-11T10:11:36.066Z,46.47
2023-02-11T10:14:49.394Z,38.35
2023-02-11T10:17:55.607Z,38.25
2023-02-11T10:20:50.272Z,38.97
2023-02-11T10:23:41.622Z,33.40
2023-02-11T10:26:33.196Z,37.13
2023-02-11T10:29:50.433Z,35.58
2023-02-11T10:33:08.941Z,35.55
2023-02-11T10:35:56.779Z,34.83
2023-02-11T10:38:45.162Z,31.77
2023-02-11T10:41:42.177Z,32.83
2023-02-11T10:44:44.404Z,28.90
2023-02-11T10:47:37.715Z,30.35
2023-02-11T10:50:29.319Z,26.65
2023-02-11T10:53:24.530Z,27.77
2023-02-11T10:56:24.178Z,24.33
2023-02-11T10:59:33.244Z,24.63
2023-02-11T11:02:37.052Z,22.35
2023-02-11T11:05:46.114Z,23.85
2023-02-11T11:08:48.142Z,22.13
2023-02-11T11:11:54.846Z,22.67
2023-02-11T11:14:55.156Z,18.50
2023-02-11T11:17:43.123Z,20.58
2023-02-11T11:20:36.494Z,19.77
2023-02-11T11:23:25.429Z,22.35
2023-02-11T11:26:15.754Z,18.10
2023-02-11T11:29:14.683Z,17.52
2023-02-11T11:32:37.988Z,57.95
2023-02-11T11:35:28.901Z,16.05
2023-02-11T11:38:17.727Z,14.68
2023-02-11T11:41:20.436Z,18.45
2023-02-11T11:44:31.568Z,18.40
2023-02-11T11:47:27.299Z,18.17
2023-02-11T11:50:26.528Z,22.10
2023-02-11T11:53:28.428Z,30.67
2023-02-11T11:56:30.369Z,22.33
2023-02-11T11:59:20.545Z,16.45
2023-02-11T12:02:29.699Z,20.27
2023-02-11T12:05:42.349Z,17.75
2023-02-11T12:08:32.923Z,26.33
2023-02-11T12:11:33.704Z,21.35
2023-02-11T12:17:53.269Z,19.25
2023-02-11T12:20:51.204Z,18.83
2023-02-11T12:24:29.664Z,19.13
2023-02-11T12:27:43.019Z,17.48
2023-02-11T12:31:01.800Z,17.88
2023-02-11T12:34:00.764Z,15.93
2023-02-11T12:37:03.668Z,16.77
2023-02-11T12:40:13.642Z,19.70
2023-02-11T12:43:16.765Z,17.60
2023-02-11T12:46:56.535Z,16.45
2023-02-11T12:50:08.595Z,28.17
2023-02-11T12:53:15.255Z,30.20
2023-02-11T12:56:18.026Z,16.33
2023-02-11T12:59:14.414Z,27.08
2023-02-11T13:02:16.161Z,24.10
2023-02-11T13:05:26.640Z,17.92
2023-02-11T13:08:43.477Z,15.80
2023-02-11T13:11:44.372Z,21.65
2023-02-11T13:14:37.053Z,16.90
2023-02-11T13:17:46.424Z,16.20
2023-02-11T13:20:39.904Z,15.18
2023-02-11T13:23:41.909Z,26.23
2023-02-11T13:26:49.796Z,15.93
2023-02-11T13:29:44.075Z,21.20
2023-02-11T13:32:55.680Z,19.10
2023-02-11T13:36:09.659Z,18.33
2023-02-11T13:39:00.745Z,22.48
2023-02-11T13:41:52.529Z,16.08
2023-02-11T13:44:40.438Z,13.85
2023-02-11T13:47:34.992Z,15.93
2023-02-11T13:50:25.623Z,18.35
2023-02-11T13:56:12.030Z,16.65
2023-02-11T13:59:02.448Z,18.20
2023-02-11T14:05:38.331Z,52.70
2023-02-11T14:08:45.339Z,20.30
2023-02-11T14:11:41.092Z,17.52
2023-02-11T14:14:34.050Z,17.80
2023-02-11T14:17:31.637Z,16.70
2023-02-11T14:20:43.583Z,15.40
2023-02-11T14:23:32.908Z,16.05
2023-02-11T14:26:20.509Z,15.93
2023-02-11T14:29:25.671Z,14.25
2023-02-11T14:32:38.187Z,21.38
2023-02-11T14:35:48.489Z,19.75
2023-02-11T14:38:56.233Z,20.75
2023-02-11T14:41:46.402Z,17.13
2023-02-11T14:44:35.286Z,20.88
2023-02-11T14:48:02.904Z,17.23
2023-02-11T14:51:10.698Z,18.45
2023-02-11T14:54:13.810Z,16.02
2023-02-11T14:57:08.457Z,17.52
2023-02-11T14:59:59.492Z,17.08
2023-02-11T15:02:49.469Z,17.10
2023-02-11T15:05:37.369Z,16.42
2023-02-11T15:08:25.654Z,17.58
2023-02-11T15:11:17.595Z,17.48
2023-02-11T15:14:32.078Z,20.33
2023-02-11T15:17:26.050Z,30.52
2023-02-11T15:20:27.096Z,23.13
2023-02-11T15:23:25.056Z,27.58
2023-02-11T15:26:15.466Z,21.00
2023-02-11T15:29:03.140Z,21.17
2023-02-11T15:32:05.953Z,20.88
2023-02-11T15:34:54.704Z,23.33
2023-02-11T15:37:42.474Z,20.30
2023-02-11T15:40:33.305Z,20.02
2023-02-11T15:46:11.869Z,25.95
2023-02-11T15:49:02.338Z,25.17
2023-02-11T15:51:50.870Z,24.75
2023-02-11T15:54:39.331Z,26.63
2023-02-11T15:57:28.997Z,25.20
2023-02-11T16:00:19.796Z,21.40
2023-02-11T16:03:07.526Z,22.50
2023-02-11T16:05:56.700Z,21.15
2023-02-11T16:09:00.324Z,26.83
2023-02-11T16:11:48.377Z,21.65
2023-02-11T16:14:39.939Z,23.83
2023-02-11T16:17:29.620Z,22.98
2023-02-11T16:20:20.968Z,23.00
2023-02-11T16:23:08.725Z,25.80
2023-02-11T16:26:07.202Z,28.10
2023-02-11T16:29:13.693Z,35.50
2023-02-11T16:32:19.168Z,30.00
2023-02-11T16:35:12.815Z,29.50
2023-02-11T16:38:01.517Z,28.15
2023-02-11T16:40:50.214Z,27.17
2023-02-11T16:43:38.510Z,24.20
2023-02-11T16:46:27.692Z,20.58
2023-02-11T16:49:27.794Z,19.55
2023-02-11T16:52:16.861Z,17.73
2023-02-11T16:55:06.313Z,16.90
2023-02-11T16:57:54.152Z,18.55
2023-02-11T17:00:43.588Z,22.35
2023-02-11T17:03:37.928Z,21.05
2023-02-11T17:06:26.061Z,22.08
2023-02-11T17:09:29.764Z,22.33
2023-02-11T17:12:20.986Z,20.45
2023-02-11T17:17:56.989Z,18.58
2023-02-11T17:20:45.471Z,16.00
2023-02-11T17:23:33.154Z,19.83
2023-02-11T17:26:20.792Z,16.48
2023-02-11T17:29:11.669Z,17.33
2023-02-11T17:34:47.401Z,16.02
2023-02-11T17:37:36.468Z,23.55
2023-02-11T17:40:24.469Z,24.67
2023-02-11T17:43:12.976Z,21.65
2023-02-11T17:46:00.786Z,20.52
2023-02-11T17:48:48.594Z,22.25
2023-02-11T17:51:39.858Z,21.08
2023-02-11T17:54:27.554Z,28.88
2023-02-11T17:57:15.464Z,28.65
2023-02-11T18:00:05.348Z,25.63
2023-02-11T18:03:03.245Z,37.25
2023-02-11T18:05:52.872Z,28.80
2023-02-11T18:08:42.924Z,26.40
2023-02-11T18:11:33.591Z,26.77
2023-02-11T18:14:22.412Z,26.05
2023-02-11T18:17:10.579Z,23.90
2023-02-11T18:19:58.450Z,24.67
2023-02-11T18:22:46.294Z,24.40
2023-02-11T18:25:34.047Z,21.08
2023-02-11T18:28:22.611Z,21.85
2023-02-11T18:31:11.798Z,27.13
2023-02-11T18:34:00.143Z,29.58
2023-02-11T18:36:49.034Z,30.38
2023-02-11T18:39:39.702Z,25.15
2023-02-11T18:42:28.383Z,25.02
2023-02-11T18:45:16.484Z,23.13
2023-02-11T18:48:05.529Z,20.88
2023-02-11T18:50:54.779Z,25.55
2023-02-11T18:53:43.582Z,22.38
2023-02-11T18:56:32.274Z,23.23
2023-02-11T18:59:20.064Z,22.85
2023-02-11T19:02:09.637Z,24.77
2023-02-11T19:04:57.569Z,30.23
2023-02-11T19:07:46.120Z,25.08
2023-02-11T19:10:34.160Z,26.17
2023-02-11T19:13:21.918Z,26.15
2023-02-11T19:16:11.701Z,27.80
2023-02-11T19:21:53.713Z,27.23
2023-02-11T19:24:42.665Z,31.17
2023-02-11T19:27:30.343Z,28.33
2023-02-11T19:30:19.195Z,25.85
2023-02-11T19:33:10.399Z,27.30
2023-02-11T19:36:04.576Z,25.13
2023-02-11T19:38:52.317Z,27.77
2023-02-11T19:41:40.290Z,32.05
2023-02-11T19:44:28.426Z,38.55
2023-02-11T19:47:16.340Z,44.78
2023-02-11T19:50:05.379Z,34.40
2023-02-11T19:52:55.020Z,34.93
2023-02-11T19:55:44.294Z,33.97
2023-02-11T19:58:32.206Z,33.72
2023-02-11T20:01:22.040Z,32.70
2023-02-11T20:04:09.824Z,28.30
2023-02-11T20:07:03.818Z,28.42
2023-02-11T20:09:53.972Z,25.55
2023-02-11T20:12:42.567Z,31.10
2023-02-11T20:15:33.165Z,29.20
2023-02-11T20:18:22.417Z,33.03
2023-02-11T20:21:27.081Z,29.10
2023-02-11T20:24:17.892Z,36.35
2023-02-11T20:27:29.804Z,31.98
2023-02-11T20:30:18.544Z,33.70
2023-02-11T20:33:06.198Z,30.00
2023-02-11T20:35:58.944Z,29.58
2023-02-11T20:38:47.151Z,29.38
2023-02-11T20:41:37.072Z,36.90
2023-02-11T20:44:25.354Z,27.63
2023-02-11T20:47:13.661Z,29.98
2023-02-11T20:50:01.381Z,31.70
2023-02-11T20:52:49.868Z,28.42
2023-02-11T20:55:39.977Z,27.73
2023-02-11T20:58:28.138Z,31.25
2023-02-11T21:01:19.008Z,27.17
2023-02-11T21:06:59.310Z,26.92
2023-02-11T21:09:48.367Z,29.73
2023-02-11T21:12:37.508Z,84.97
2023-02-11T21:15:26.502Z,56.15
2023-02-11T21:18:15.015Z,32.67
2023-02-11T21:21:04.839Z,47.40
2023-02-11T21:25:10.105Z,60.63
2023-02-11T21:28:02.914Z,33.00
2023-02-11T21:30:51.677Z,31.23
2023-02-11T21:33:42.271Z,35.05
2023-02-11T21:36:57.324Z,31.88
2023-02-11T21:39:46.844Z,64.03
2023-02-11T21:42:35.249Z,51.28
2023-02-11T21:45:25.640Z,38.22
2023-02-11T21:48:14.300Z,26.90
2023-02-11T21:51:26.936Z,24.40
2023-02-11T21:54:14.783Z,26.27
2023-02-11T21:57:03.379Z,27.08
2023-02-11T21:59:51.078Z,30.05
2023-02-11T22:02:56.240Z,27.27
2023-02-11T22:05:43.924Z,34.92
2023-02-11T22:08:31.617Z,27.52
2023-02-11T22:11:20.032Z,32.85
2023-02-11T22:14:10.652Z,30.95
2023-02-11T22:16:58.333Z,30.50
2023-02-11T22:19:45.997Z,26.42
2023-02-11T22:22:33.820Z,25.20
2023-02-11T22:26:11.287Z,25.70
2023-02-11T22:28:59.070Z,21.08
2023-02-11T22:31:46.943Z,23.50
2023-02-11T22:34:35.869Z,21.38
2023-02-11T22:37:23.645Z,30.85
2023-02-11T22:40:11.935Z,29.45
2023-02-11T22:42:59.709Z,32.22
2023-02-11T22:45:47.638Z,29.50
2023-02-11T22:48:36.723Z,24.42
2023-02-11T22:51:44.823Z,23.48
2023-02-11T22:54:32.653Z,26.05
2023-02-11T22:57:20.607Z,28.48
2023-02-11T23:00:10.150Z,28.85
2023-02-11T23:02:59.136Z,25.42
2023-02-11T23:05:46.866Z,26.27
2023-02-11T23:09:49.951Z,26.25
2023-02-11T23:12:41.523Z,30.70
2023-02-11T23:15:29.317Z,26.77
2023-02-11T23:18:17.045Z,29.25
2023-02-11T23:21:11.307Z,26.98
2023-02-11T23:24:02.445Z,26.00
2023-02-11T23:26:50.245Z,23.90
2023-02-11T23:29:37.999Z,22.77
2023-02-11T23:32:26.335Z,24.20
2023-02-11T23:35:22.166Z,25.60
2023-02-11T23:38:10.910Z,24.67
2023-02-11T23:40:58.729Z,24.73
2023-02-11T23:43:51.044Z,25.83
2023-02-11T23:46:39.003Z,29.80
2023-02-11T23:49:26.732Z,33.40
2023-02-11T23:52:14.563Z,33.28
2023-02-11T23:55:02.820Z,33.63
2023-02-11T23:57:50.545Z,31.15
